sensor_id;sensor_type;location;lat;lon;timestamp;temperature;humidity
13436;DHT22;6790;49.520;8.504;2022-12-18T00:01:18;-7.10;99.90
13436;DHT22;6790;49.520;8.504;2022-12-18T00:03:45;-7.10;99.90
13436;DHT22;6790;49.520;8.504;2022-12-18T00:06:12;-7.20;99.90
13436;DHT22;6790;49.520;8.504;2022-12-18T00:08:39;-7.30;99.90
13436;DHT22;6790;49.520;8.504;2022-12-18T00:11:07;-7.30;99.90
13436;DHT22;6790;49.520;8.504;2022-12-18T00:13:34;-7.30;99.90
13436;DHT22;6790;49.520;8.504;2022-12-18T00:16:05;-7.30;99.90
13436;DHT22;6790;49.520;8.504;2022-12-18T00:18:32;-7.30;99.90
13436;DHT22;6790;49.520;8.504;2022-12-18T00:21:03;-7.40;99.90
13436;DHT22;6790;49.520;8.504;2022-12-18T00:23:31;-7.40;99.90
13436;DHT22;6790;49.520;8.504;2022-12-18T00:26:03;-7.50;99.90
13436;DHT22;6790;49.520;8.504;2022-12-18T00:28:30;-7.50;99.90
13436;DHT22;6790;49.520;8.504;2022-12-18T00:31:25;-7.50;99.90
13436;DHT22;6790;49.520;8.504;2022-12-18T00:33:54;-7.40;99.90
13436;DHT22;6790;49.520;8.504;2022-12-18T00:36:25;-7.40;99.90
13436;DHT22;6790;49.520;8.504;2022-12-18T00:38:54;-7.40;99.90
13436;DHT22;6790;49.520;8.504;2022-12-18T00:41:21;-7.40;99.90
13436;DHT22;6790;49.520;8.504;2022-12-18T00:44:08;-7.40;99.90
13436;DHT22;6790;49.520;8.504;2022-12-18T00:46:36;-7.40;99.90
13436;DHT22;6790;49.520;8.504;2022-12-18T00:49:02;-7.30;99.90
13436;DHT22;6790;49.520;8.504;2022-12-18T00:51:28;-7.30;99.90
13436;DHT22;6790;49.520;8.504;2022-12-18T00:53:54;-7.30;99.90
13436;DHT22;6790;49.520;8.504;2022-12-18T00:56:20;-7.20;99.90
13436;DHT22;6790;49.520;8.504;2022-12-18T00:58:45;-7.20;99.90
13436;DHT22;6790;49.520;8.504;2022-12-18T01:01:11;-7.20;99.90
13436;DHT22;6790;49.520;8.504;2022-12-18T01:03:37;-7.30;99.90
13436;DHT22;6790;49.520;8.504;2022-12-18T01:06:07;-7.20;99.90
13436;DHT22;6790;49.520;8.504;2022-12-18T01:08:34;-7.20;99.90
13436;DHT22;6790;49.520;8.504;2022-12-18T01:11:00;-7.20;99.90
13436;DHT22;6790;49.520;8.504;2022-12-18T01:13:27;-7.30;99.90
13436;DHT22;6790;49.520;8.504;2022-12-18T01:15:53;-7.40;99.90
13436;DHT22;6790;49.520;8.504;2022-12-18T01:18:18;-7.40;99.90
13436;DHT22;6790;49.520;8.504;2022-12-18T01:20:44;-7.40;99.90
13436;DHT22;6790;49.520;8.504;2022-12-18T01:23:10;-7.40;99.90
13436;DHT22;6790;49.520;8.504;2022-12-18T01:25:36;-7.40;99.90
13436;DHT22;6790;49.520;8.504;2022-12-18T01:28:02;-7.40;99.90
13436;DHT22;6790;49.520;8.504;2022-12-18T01:30:28;-7.50;99.90
13436;DHT22;6790;49.520;8.504;2022-12-18T01:32:54;-7.50;99.90
13436;DHT22;6790;49.520;8.504;2022-12-18T01:35:20;-7.40;99.90
13436;DHT22;6790;49.520;8.504;2022-12-18T01:37:46;-7.40;99.90
13436;DHT22;6790;49.520;8.504;2022-12-18T01:40:12;-7.40;99.90
13436;DHT22;6790;49.520;8.504;2022-12-18T01:42:38;-7.40;99.90
13436;DHT22;6790;49.520;8.504;2022-12-18T01:45:20;-7.30;99.90
13436;DHT22;6790;49.520;8.504;2022-12-18T01:47:54;-7.30;99.90
13436;DHT22;6790;49.520;8.504;2022-12-18T01:50:40;-7.20;99.90
13436;DHT22;6790;49.520;8.504;2022-12-18T01:55:45;-7.30;99.90
13436;DHT22;6790;49.520;8.504;2022-12-18T01:58:13;-7.40;99.90
13436;DHT22;6790;49.520;8.504;2022-12-18T02:00:39;-7.40;99.90
13436;DHT22;6790;49.520;8.504;2022-12-18T02:03:05;-7.50;99.90
13436;DHT22;6790;49.520;8.504;2022-12-18T02:05:34;-7.40;99.90
13436;DHT22;6790;49.520;8.504;2022-12-18T02:08:15;-7.40;99.90
13436;DHT22;6790;49.520;8.504;2022-12-18T02:13:52;-7.30;99.90
13436;DHT22;6790;49.520;8.504;2022-12-18T02:16:45;-7.40;99.90
13436;DHT22;6790;49.520;8.504;2022-12-18T02:25:44;-7.60;99.90
13436;DHT22;6790;49.520;8.504;2022-12-18T02:28:33;-7.60;99.90
13436;DHT22;6790;49.520;8.504;2022-12-18T02:33:31;-7.60;99.90
13436;DHT22;6790;49.520;8.504;2022-12-18T02:36:00;-7.60;99.90
13436;DHT22;6790;49.520;8.504;2022-12-18T02:38:27;-7.80;99.90
13436;DHT22;6790;49.520;8.504;2022-12-18T02:40:53;-7.80;99.90
13436;DHT22;6790;49.520;8.504;2022-12-18T02:43:20;-7.90;99.90
13436;DHT22;6790;49.520;8.504;2022-12-18T02:45:53;-7.90;99.90
13436;DHT22;6790;49.520;8.504;2022-12-18T02:48:31;-7.90;99.90
13436;DHT22;6790;49.520;8.504;2022-12-18T02:51:46;-8.00;99.90
13436;DHT22;6790;49.520;8.504;2022-12-18T02:54:45;-8.00;99.90
13436;DHT22;6790;49.520;8.504;2022-12-18T02:57:33;-8.00;99.90
13436;DHT22;6790;49.520;8.504;2022-12-18T03:00:08;-8.00;99.90
13436;DHT22;6790;49.520;8.504;2022-12-18T03:03:16;-8.00;99.90
13436;DHT22;6790;49.520;8.504;2022-12-18T03:06:24;-7.90;99.90
13436;DHT22;6790;49.520;8.504;2022-12-18T03:08:57;-7.90;99.90
13436;DHT22;6790;49.520;8.504;2022-12-18T03:11:27;-7.90;99.90
13436;DHT22;6790;49.520;8.504;2022-12-18T03:14:15;-7.80;99.90
13436;DHT22;6790;49.520;8.504;2022-12-18T03:16:42;-7.80;99.90
13436;DHT22;6790;49.520;8.504;2022-12-18T03:19:14;-7.80;99.90
13436;DHT22;6790;49.520;8.504;2022-12-18T03:21:47;-7.90;99.90
13436;DHT22;6790;49.520;8.504;2022-12-18T03:24:17;-7.90;99.90
13436;DHT22;6790;49.520;8.504;2022-12-18T03:26:47;-7.80;99.90
13436;DHT22;6790;49.520;8.504;2022-12-18T03:29:21;-7.80;99.90
13436;DHT22;6790;49.520;8.504;2022-12-18T03:31:56;-7.70;99.90
13436;DHT22;6790;49.520;8.504;2022-12-18T03:34:31;-7.80;99.90
13436;DHT22;6790;49.520;8.504;2022-12-18T03:36:59;-7.80;99.90
13436;DHT22;6790;49.520;8.504;2022-12-18T03:39:25;-7.80;99.90
13436;DHT22;6790;49.520;8.504;2022-12-18T03:44:59;-7.80;99.90
13436;DHT22;6790;49.520;8.504;2022-12-18T03:50:46;-7.80;99.90
13436;DHT22;6790;49.520;8.504;2022-12-18T03:56:08;-7.80;99.90
13436;DHT22;6790;49.520;8.504;2022-12-18T03:58:37;-7.90;99.90
13436;DHT22;6790;49.520;8.504;2022-12-18T04:01:08;-7.90;99.90
13436;DHT22;6790;49.520;8.504;2022-12-18T04:03:35;-7.80;99.90
13436;DHT22;6790;49.520;8.504;2022-12-18T04:06:02;-7.80;99.90
13436;DHT22;6790;49.520;8.504;2022-12-18T04:08:29;-7.80;99.90
13436;DHT22;6790;49.520;8.504;2022-12-18T04:10:54;-7.70;99.90
13436;DHT22;6790;49.520;8.504;2022-12-18T04:13:24;-7.80;99.90
13436;DHT22;6790;49.520;8.504;2022-12-18T04:15:53;-7.80;99.90
13436;DHT22;6790;49.520;8.504;2022-12-18T04:18:19;-7.70;99.90
13436;DHT22;6790;49.520;8.504;2022-12-18T04:20:45;-7.80;99.90
13436;DHT22;6790;49.520;8.504;2022-12-18T04:23:11;-7.70;99.90
13436;DHT22;6790;49.520;8.504;2022-12-18T04:25:37;-7.70;99.90
13436;DHT22;6790;49.520;8.504;2022-12-18T04:28:02;-7.70;99.90
13436;DHT22;6790;49.520;8.504;2022-12-18T04:30:28;-7.70;99.90
13436;DHT22;6790;49.520;8.504;2022-12-18T04:32:54;-7.70;99.90
13436;DHT22;6790;49.520;8.504;2022-12-18T04:35:19;-7.60;99.90
13436;DHT22;6790;49.520;8.504;2022-12-18T04:37:45;-7.60;99.90
13436;DHT22;6790;49.520;8.504;2022-12-18T04:40:11;-7.70;99.90
13436;DHT22;6790;49.520;8.504;2022-12-18T04:42:38;-7.70;99.90
13436;DHT22;6790;49.520;8.504;2022-12-18T04:45:04;-7.70;99.90
13436;DHT22;6790;49.520;8.504;2022-12-18T04:47:30;-7.70;99.90
13436;DHT22;6790;49.520;8.504;2022-12-18T04:49:56;-7.70;99.90
13436;DHT22;6790;49.520;8.504;2022-12-18T04:52:22;-7.60;99.90
13436;DHT22;6790;49.520;8.504;2022-12-18T04:54:48;-7.60;99.90
13436;DHT22;6790;49.520;8.504;2022-12-18T04:57:13;-7.60;99.90
13436;DHT22;6790;49.520;8.504;2022-12-18T04:59:39;-7.50;99.90
13436;DHT22;6790;49.520;8.504;2022-12-18T05:02:05;-7.50;99.90
13436;DHT22;6790;49.520;8.504;2022-12-18T05:04:30;-7.50;99.90
13436;DHT22;6790;49.520;8.504;2022-12-18T05:06:56;-7.60;99.90
13436;DHT22;6790;49.520;8.504;2022-12-18T05:09:22;-7.50;99.90
13436;DHT22;6790;49.520;8.504;2022-12-18T05:11:48;-7.50;99.90
13436;DHT22;6790;49.520;8.504;2022-12-18T05:14:14;-7.40;99.90
13436;DHT22;6790;49.520;8.504;2022-12-18T05:16:40;-7.40;99.90
13436;DHT22;6790;49.520;8.504;2022-12-18T05:19:05;-7.40;99.90
13436;DHT22;6790;49.520;8.504;2022-12-18T05:21:31;-7.40;99.90
13436;DHT22;6790;49.520;8.504;2022-12-18T05:23:57;-7.40;99.90
13436;DHT22;6790;49.520;8.504;2022-12-18T05:26:22;-7.30;99.90
13436;DHT22;6790;49.520;8.504;2022-12-18T05:28:48;-7.30;99.90
13436;DHT22;6790;49.520;8.504;2022-12-18T05:31:14;-7.20;99.90
13436;DHT22;6790;49.520;8.504;2022-12-18T05:33:40;-7.20;99.90
13436;DHT22;6790;49.520;8.504;2022-12-18T05:36:07;-7.10;99.90
13436;DHT22;6790;49.520;8.504;2022-12-18T05:38:35;-7.10;99.90
13436;DHT22;6790;49.520;8.504;2022-12-18T05:41:03;-7.10;99.90
13436;DHT22;6790;49.520;8.504;2022-12-18T05:43:29;-7.10;99.90
13436;DHT22;6790;49.520;8.504;2022-12-18T05:45:55;-7.10;99.90
13436;DHT22;6790;49.520;8.504;2022-12-18T05:48:22;-7.10;99.90
13436;DHT22;6790;49.520;8.504;2022-12-18T05:50:48;-7.20;99.90
13436;DHT22;6790;49.520;8.504;2022-12-18T05:53:18;-7.30;99.90
13436;DHT22;6790;49.520;8.504;2022-12-18T05:55:45;-7.40;99.90
13436;DHT22;6790;49.520;8.504;2022-12-18T05:58:12;-7.60;99.90
13436;DHT22;6790;49.520;8.504;2022-12-18T06:00:41;-7.60;99.90
13436;DHT22;6790;49.520;8.504;2022-12-18T06:03:09;-7.60;99.90
13436;DHT22;6790;49.520;8.504;2022-12-18T06:05:37;-7.50;99.90
13436;DHT22;6790;49.520;8.504;2022-12-18T06:08:05;-7.70;99.90
13436;DHT22;6790;49.520;8.504;2022-12-18T06:10:31;-7.60;99.90
13436;DHT22;6790;49.520;8.504;2022-12-18T06:12:57;-7.70;99.90
13436;DHT22;6790;49.520;8.504;2022-12-18T06:15:23;-7.70;99.90
13436;DHT22;6790;49.520;8.504;2022-12-18T06:17:49;-7.70;99.90
13436;DHT22;6790;49.520;8.504;2022-12-18T06:20:15;-7.60;99.90
13436;DHT22;6790;49.520;8.504;2022-12-18T06:22:41;-7.60;99.90
13436;DHT22;6790;49.520;8.504;2022-12-18T06:25:07;-7.70;99.90
13436;DHT22;6790;49.520;8.504;2022-12-18T06:27:33;-7.60;99.90
13436;DHT22;6790;49.520;8.504;2022-12-18T06:29:59;-7.50;99.90
13436;DHT22;6790;49.520;8.504;2022-12-18T06:32:25;-7.50;99.90
13436;DHT22;6790;49.520;8.504;2022-12-18T06:34:52;-7.50;99.90
13436;DHT22;6790;49.520;8.504;2022-12-18T06:37:19;-7.50;99.90
13436;DHT22;6790;49.520;8.504;2022-12-18T06:39:44;-7.50;99.90
13436;DHT22;6790;49.520;8.504;2022-12-18T06:42:10;-7.60;99.90
13436;DHT22;6790;49.520;8.504;2022-12-18T06:44:36;-7.60;99.90
13436;DHT22;6790;49.520;8.504;2022-12-18T06:47:01;-7.60;99.90
13436;DHT22;6790;49.520;8.504;2022-12-18T06:49:27;-7.50;99.90
13436;DHT22;6790;49.520;8.504;2022-12-18T06:51:53;-7.40;99.90
13436;DHT22;6790;49.520;8.504;2022-12-18T06:54:18;-7.30;99.90
13436;DHT22;6790;49.520;8.504;2022-12-18T06:56:47;-7.30;99.90
13436;DHT22;6790;49.520;8.504;2022-12-18T06:59:13;-7.30;99.90
13436;DHT22;6790;49.520;8.504;2022-12-18T07:01:40;-7.20;99.90
13436;DHT22;6790;49.520;8.504;2022-12-18T07:04:05;-7.20;99.90
13436;DHT22;6790;49.520;8.504;2022-12-18T07:06:31;-7.20;99.90
13436;DHT22;6790;49.520;8.504;2022-12-18T07:08:57;-7.20;99.90
13436;DHT22;6790;49.520;8.504;2022-12-18T07:11:23;-7.20;99.90
13436;DHT22;6790;49.520;8.504;2022-12-18T07:13:49;-7.30;99.90
13436;DHT22;6790;49.520;8.504;2022-12-18T07:16:17;-7.30;99.90
13436;DHT22;6790;49.520;8.504;2022-12-18T07:18:44;-7.30;99.90
13436;DHT22;6790;49.520;8.504;2022-12-18T07:21:18;-7.20;99.90
13436;DHT22;6790;49.520;8.504;2022-12-18T07:23:45;-7.30;99.90
13436;DHT22;6790;49.520;8.504;2022-12-18T07:26:14;-7.20;99.90
13436;DHT22;6790;49.520;8.504;2022-12-18T07:28:42;-7.30;99.90
13436;DHT22;6790;49.520;8.504;2022-12-18T07:31:10;-7.40;99.90
13436;DHT22;6790;49.520;8.504;2022-12-18T07:33:37;-7.50;99.90
13436;DHT22;6790;49.520;8.504;2022-12-18T07:36:05;-7.50;99.90
13436;DHT22;6790;49.520;8.504;2022-12-18T07:38:33;-7.50;99.90
13436;DHT22;6790;49.520;8.504;2022-12-18T07:41:10;-7.60;99.90
13436;DHT22;6790;49.520;8.504;2022-12-18T07:43:38;-7.60;99.90
13436;DHT22;6790;49.520;8.504;2022-12-18T07:46:04;-7.50;99.90
13436;DHT22;6790;49.520;8.504;2022-12-18T07:48:30;-7.60;99.90
13436;DHT22;6790;49.520;8.504;2022-12-18T07:51:00;-7.60;99.90
13436;DHT22;6790;49.520;8.504;2022-12-18T07:53:26;-7.60;99.90
13436;DHT22;6790;49.520;8.504;2022-12-18T07:56:00;-7.70;99.90
13436;DHT22;6790;49.520;8.504;2022-12-18T07:58:29;-7.70;99.90
13436;DHT22;6790;49.520;8.504;2022-12-18T08:01:09;-7.70;99.90
13436;DHT22;6790;49.520;8.504;2022-12-18T08:03:37;-7.80;99.90
13436;DHT22;6790;49.520;8.504;2022-12-18T08:06:05;-7.80;99.90
13436;DHT22;6790;49.520;8.504;2022-12-18T08:08:32;-7.80;99.90
13436;DHT22;6790;49.520;8.504;2022-12-18T08:10:59;-7.80;99.90
13436;DHT22;6790;49.520;8.504;2022-12-18T08:13:25;-7.90;99.90
13436;DHT22;6790;49.520;8.504;2022-12-18T08:16:03;-7.90;99.90
13436;DHT22;6790;49.520;8.504;2022-12-18T08:18:32;-7.80;99.90
13436;DHT22;6790;49.520;8.504;2022-12-18T08:21:21;-7.80;99.90
13436;DHT22;6790;49.520;8.504;2022-12-18T08:23:58;-7.80;99.90
13436;DHT22;6790;49.520;8.504;2022-12-18T08:26:26;-7.80;99.90
13436;DHT22;6790;49.520;8.504;2022-12-18T08:28:55;-7.80;99.90
13436;DHT22;6790;49.520;8.504;2022-12-18T08:31:22;-7.80;99.90
13436;DHT22;6790;49.520;8.504;2022-12-18T08:33:50;-7.70;99.90
13436;DHT22;6790;49.520;8.504;2022-12-18T08:36:17;-7.80;99.90
13436;DHT22;6790;49.520;8.504;2022-12-18T08:38:44;-7.70;99.90
13436;DHT22;6790;49.520;8.504;2022-12-18T08:41:11;-7.60;99.90
13436;DHT22;6790;49.520;8.504;2022-12-18T08:43:38;-7.60;99.90
13436;DHT22;6790;49.520;8.504;2022-12-18T08:46:25;-7.60;99.90
13436;DHT22;6790;49.520;8.504;2022-12-18T08:48:52;-7.60;99.90
13436;DHT22;6790;49.520;8.504;2022-12-18T08:51:19;-7.50;99.90
13436;DHT22;6790;49.520;8.504;2022-12-18T08:53:46;-7.50;99.90
13436;DHT22;6790;49.520;8.504;2022-12-18T08:56:13;-7.50;99.90
13436;DHT22;6790;49.520;8.504;2022-12-18T08:58:39;-7.40;99.90
13436;DHT22;6790;49.520;8.504;2022-12-18T09:01:07;-7.40;99.90
13436;DHT22;6790;49.520;8.504;2022-12-18T09:03:35;-7.30;99.90
13436;DHT22;6790;49.520;8.504;2022-12-18T09:06:01;-7.20;99.90
13436;DHT22;6790;49.520;8.504;2022-12-18T09:08:28;-7.10;99.90
13436;DHT22;6790;49.520;8.504;2022-12-18T09:10:54;-7.10;99.90
13436;DHT22;6790;49.520;8.504;2022-12-18T09:13:20;-7.00;99.90
13436;DHT22;6790;49.520;8.504;2022-12-18T09:15:48;-7.00;99.90
13436;DHT22;6790;49.520;8.504;2022-12-18T09:18:19;-7.00;99.90
13436;DHT22;6790;49.520;8.504;2022-12-18T09:20:46;-6.90;99.90
13436;DHT22;6790;49.520;8.504;2022-12-18T09:23:13;-6.80;99.90
13436;DHT22;6790;49.520;8.504;2022-12-18T09:25:39;-6.80;99.90
13436;DHT22;6790;49.520;8.504;2022-12-18T09:28:17;-6.70;99.90
13436;DHT22;6790;49.520;8.504;2022-12-18T09:30:49;-6.60;99.90
13436;DHT22;6790;49.520;8.504;2022-12-18T09:33:16;-6.60;99.90
13436;DHT22;6790;49.520;8.504;2022-12-18T09:35:43;-6.50;99.90
13436;DHT22;6790;49.520;8.504;2022-12-18T09:38:16;-6.30;99.90
13436;DHT22;6790;49.520;8.504;2022-12-18T09:40:45;-6.30;99.90
13436;DHT22;6790;49.520;8.504;2022-12-18T09:43:22;-6.20;99.90
13436;DHT22;6790;49.520;8.504;2022-12-18T09:45:58;-6.00;99.90
13436;DHT22;6790;49.520;8.504;2022-12-18T09:48:36;-6.00;99.90
13436;DHT22;6790;49.520;8.504;2022-12-18T09:51:14;-6.00;99.90
13436;DHT22;6790;49.520;8.504;2022-12-18T09:53:45;-5.90;99.90
13436;DHT22;6790;49.520;8.504;2022-12-18T09:56:17;-5.80;99.90
13436;DHT22;6790;49.520;8.504;2022-12-18T09:58:57;-5.80;99.90
13436;DHT22;6790;49.520;8.504;2022-12-18T10:01:24;-5.70;99.90
13436;DHT22;6790;49.520;8.504;2022-12-18T10:03:52;-5.70;99.90
13436;DHT22;6790;49.520;8.504;2022-12-18T10:06:36;-5.60;99.90
13436;DHT22;6790;49.520;8.504;2022-12-18T10:09:34;-5.50;99.90
13436;DHT22;6790;49.520;8.504;2022-12-18T10:12:40;-5.60;99.90
13436;DHT22;6790;49.520;8.504;2022-12-18T10:21:21;-5.40;99.90
13436;DHT22;6790;49.520;8.504;2022-12-18T10:24:14;-5.30;99.90
13436;DHT22;6790;49.520;8.504;2022-12-18T10:26:52;-5.30;99.90
13436;DHT22;6790;49.520;8.504;2022-12-18T10:29:19;-5.20;99.90
13436;DHT22;6790;49.520;8.504;2022-12-18T10:31:45;-5.10;99.90
13436;DHT22;6790;49.520;8.504;2022-12-18T10:34:11;-5.00;99.90
13436;DHT22;6790;49.520;8.504;2022-12-18T10:36:37;-5.10;99.90
13436;DHT22;6790;49.520;8.504;2022-12-18T10:39:26;-5.00;99.90
13436;DHT22;6790;49.520;8.504;2022-12-18T10:42:18;-5.10;99.90
13436;DHT22;6790;49.520;8.504;2022-12-18T10:44:45;-4.90;99.90
13436;DHT22;6790;49.520;8.504;2022-12-18T10:47:20;-4.80;99.90
13436;DHT22;6790;49.520;8.504;2022-12-18T10:49:52;-4.70;99.90
13436;DHT22;6790;49.520;8.504;2022-12-18T10:52:23;-4.60;99.90
13436;DHT22;6790;49.520;8.504;2022-12-18T10:55:00;-4.60;99.90
13436;DHT22;6790;49.520;8.504;2022-12-18T10:57:38;-4.50;99.90
13436;DHT22;6790;49.520;8.504;2022-12-18T11:00:24;-4.50;99.90
13436;DHT22;6790;49.520;8.504;2022-12-18T11:02:55;-4.50;99.90
13436;DHT22;6790;49.520;8.504;2022-12-18T11:05:33;-4.40;99.90
13436;DHT22;6790;49.520;8.504;2022-12-18T11:08:00;-4.40;99.90
13436;DHT22;6790;49.520;8.504;2022-12-18T11:10:36;-4.30;99.90
13436;DHT22;6790;49.520;8.504;2022-12-18T11:13:29;-4.30;99.90
13436;DHT22;6790;49.520;8.504;2022-12-18T11:15:57;-4.30;99.90
13436;DHT22;6790;49.520;8.504;2022-12-18T11:18:28;-4.30;99.90
13436;DHT22;6790;49.520;8.504;2022-12-18T11:21:11;-4.40;99.90
13436;DHT22;6790;49.520;8.504;2022-12-18T11:23:51;-4.30;99.90
13436;DHT22;6790;49.520;8.504;2022-12-18T11:26:18;-4.20;99.90
13436;DHT22;6790;49.520;8.504;2022-12-18T11:28:49;-4.20;99.90
13436;DHT22;6790;49.520;8.504;2022-12-18T11:34:10;-4.00;99.90
13436;DHT22;6790;49.520;8.504;2022-12-18T11:36:43;-3.90;99.90
13436;DHT22;6790;49.520;8.504;2022-12-18T11:39:39;-3.80;99.90
13436;DHT22;6790;49.520;8.504;2022-12-18T11:42:12;-3.70;99.90
13436;DHT22;6790;49.520;8.504;2022-12-18T11:44:50;-3.60;99.90
13436;DHT22;6790;49.520;8.504;2022-12-18T11:50:17;-3.60;99.90
13436;DHT22;6790;49.520;8.504;2022-12-18T11:52:44;-3.60;99.90
13436;DHT22;6790;49.520;8.504;2022-12-18T11:55:13;-3.60;99.90
13436;DHT22;6790;49.520;8.504;2022-12-18T11:57:53;-3.60;99.90
13436;DHT22;6790;49.520;8.504;2022-12-18T12:00:25;-3.60;99.90
13436;DHT22;6790;49.520;8.504;2022-12-18T12:06:17;-3.30;99.90
13436;DHT22;6790;49.520;8.504;2022-12-18T12:15:45;-3.40;99.90
13436;DHT22;6790;49.520;8.504;2022-12-18T12:21:02;-3.50;99.90
13436;DHT22;6790;49.520;8.504;2022-12-18T12:26:38;-3.40;99.90
13436;DHT22;6790;49.520;8.504;2022-12-18T12:32:49;-3.20;99.90
13436;DHT22;6790;49.520;8.504;2022-12-18T12:35:34;-3.20;99.90
13436;DHT22;6790;49.520;8.504;2022-12-18T12:38:20;-3.30;99.90
13436;DHT22;6790;49.520;8.504;2022-12-18T12:40:53;-3.20;99.90
13436;DHT22;6790;49.520;8.504;2022-12-18T12:43:37;-3.40;99.90
13436;DHT22;6790;49.520;8.504;2022-12-18T12:46:09;-3.20;99.90
13436;DHT22;6790;49.520;8.504;2022-12-18T12:48:57;-3.30;99.90
13436;DHT22;6790;49.520;8.504;2022-12-18T12:51:29;-3.20;99.90
13436;DHT22;6790;49.520;8.504;2022-12-18T12:53:59;-3.20;99.90
13436;DHT22;6790;49.520;8.504;2022-12-18T12:56:48;-3.30;99.90
13436;DHT22;6790;49.520;8.504;2022-12-18T13:00:11;-3.30;99.90
13436;DHT22;6790;49.520;8.504;2022-12-18T13:02:47;-3.20;99.90
13436;DHT22;6790;49.520;8.504;2022-12-18T13:07:54;-3.30;99.90
13436;DHT22;6790;49.520;8.504;2022-12-18T13:10:31;-3.20;99.90
13436;DHT22;6790;49.520;8.504;2022-12-18T13:15:46;-3.10;99.90
13436;DHT22;6790;49.520;8.504;2022-12-18T13:18:20;-3.10;99.90
13436;DHT22;6790;49.520;8.504;2022-12-18T13:21:08;-2.90;99.90
13436;DHT22;6790;49.520;8.504;2022-12-18T13:23:46;-3.00;99.90
13436;DHT22;6790;49.520;8.504;2022-12-18T13:34:25;-2.90;99.90
13436;DHT22;6790;49.520;8.504;2022-12-18T13:36:53;-3.00;99.90
13436;DHT22;6790;49.520;8.504;2022-12-18T13:41:52;-3.20;99.90
13436;DHT22;6790;49.520;8.504;2022-12-18T13:44:32;-3.10;99.90
13436;DHT22;6790;49.520;8.504;2022-12-18T13:47:02;-3.00;99.90
13436;DHT22;6790;49.520;8.504;2022-12-18T13:49:40;-3.00;99.90
13436;DHT22;6790;49.520;8.504;2022-12-18T13:52:25;-3.00;99.90
13436;DHT22;6790;49.520;8.504;2022-12-18T13:54:54;-3.10;99.90
13436;DHT22;6790;49.520;8.504;2022-12-18T13:59:53;-3.10;99.90
13436;DHT22;6790;49.520;8.504;2022-12-18T14:02:24;-3.10;99.90
13436;DHT22;6790;49.520;8.504;2022-12-18T14:04:52;-3.10;99.90
13436;DHT22;6790;49.520;8.504;2022-12-18T14:09:59;-3.10;99.90
13436;DHT22;6790;49.520;8.504;2022-12-18T14:12:33;-3.10;99.90
13436;DHT22;6790;49.520;8.504;2022-12-18T14:17:55;-3.10;99.90
13436;DHT22;6790;49.520;8.504;2022-12-18T14:20:25;-3.20;99.90
13436;DHT22;6790;49.520;8.504;2022-12-18T14:22:51;-3.20;99.90
13436;DHT22;6790;49.520;8.504;2022-12-18T14:25:21;-3.30;99.90
13436;DHT22;6790;49.520;8.504;2022-12-18T14:30:41;-3.20;99.90
13436;DHT22;6790;49.520;8.504;2022-12-18T14:33:16;-3.20;99.90
13436;DHT22;6790;49.520;8.504;2022-12-18T14:38:25;-3.30;99.90
13436;DHT22;6790;49.520;8.504;2022-12-18T14:41:02;-3.20;99.90
13436;DHT22;6790;49.520;8.504;2022-12-18T14:43:33;-3.30;99.90
13436;DHT22;6790;49.520;8.504;2022-12-18T14:46:01;-3.30;99.90
13436;DHT22;6790;49.520;8.504;2022-12-18T14:48:40;-3.40;99.90
13436;DHT22;6790;49.520;8.504;2022-12-18T14:51:15;-3.40;99.90
13436;DHT22;6790;49.520;8.504;2022-12-18T14:54:03;-3.50;99.90
13436;DHT22;6790;49.520;8.504;2022-12-18T14:56:52;-3.50;99.90
13436;DHT22;6790;49.520;8.504;2022-12-18T14:59:29;-3.50;99.90
13436;DHT22;6790;49.520;8.504;2022-12-18T15:02:12;-3.50;99.90
13436;DHT22;6790;49.520;8.504;2022-12-18T15:04:44;-3.60;99.90
13436;DHT22;6790;49.520;8.504;2022-12-18T15:07:21;-3.70;99.90
13436;DHT22;6790;49.520;8.504;2022-12-18T15:12:49;-3.80;99.90
13436;DHT22;6790;49.520;8.504;2022-12-18T15:20:44;-3.90;99.90
13436;DHT22;6790;49.520;8.504;2022-12-18T15:23:26;-4.00;99.90
13436;DHT22;6790;49.520;8.504;2022-12-18T15:28:33;-4.10;99.90
13436;DHT22;6790;49.520;8.504;2022-12-18T15:36:19;-4.20;99.90
13436;DHT22;6790;49.520;8.504;2022-12-18T15:38:48;-4.20;99.90
13436;DHT22;6790;49.520;8.504;2022-12-18T15:41:17;-4.20;99.90
13436;DHT22;6790;49.520;8.504;2022-12-18T15:43:45;-4.20;99.90
13436;DHT22;6790;49.520;8.504;2022-12-18T15:46:13;-4.30;99.90
13436;DHT22;6790;49.520;8.504;2022-12-18T15:48:45;-4.30;99.90
13436;DHT22;6790;49.520;8.504;2022-12-18T15:51:18;-4.30;99.90
13436;DHT22;6790;49.520;8.504;2022-12-18T15:53:47;-4.40;99.90
13436;DHT22;6790;49.520;8.504;2022-12-18T15:56:15;-4.30;99.90
13436;DHT22;6790;49.520;8.504;2022-12-18T15:59:00;-4.30;99.90
13436;DHT22;6790;49.520;8.504;2022-12-18T16:01:28;-4.40;99.90
13436;DHT22;6790;49.520;8.504;2022-12-18T16:03:55;-4.40;99.90
13436;DHT22;6790;49.520;8.504;2022-12-18T16:06:22;-4.30;99.90
13436;DHT22;6790;49.520;8.504;2022-12-18T16:08:48;-4.30;99.90
13436;DHT22;6790;49.520;8.504;2022-12-18T16:11:26;-4.40;99.90
13436;DHT22;6790;49.520;8.504;2022-12-18T16:16:47;-4.30;99.90
13436;DHT22;6790;49.520;8.504;2022-12-18T16:19:15;-4.30;99.90
13436;DHT22;6790;49.520;8.504;2022-12-18T16:21:42;-4.30;99.90
13436;DHT22;6790;49.520;8.504;2022-12-18T16:24:20;-4.30;99.90
13436;DHT22;6790;49.520;8.504;2022-12-18T16:26:50;-4.40;99.90
13436;DHT22;6790;49.520;8.504;2022-12-18T16:29:17;-4.40;99.90
13436;DHT22;6790;49.520;8.504;2022-12-18T16:31:43;-4.40;99.90
13436;DHT22;6790;49.520;8.504;2022-12-18T16:34:30;-4.40;99.90
13436;DHT22;6790;49.520;8.504;2022-12-18T16:37:01;-4.40;99.90
13436;DHT22;6790;49.520;8.504;2022-12-18T16:39:29;-4.40;99.90
13436;DHT22;6790;49.520;8.504;2022-12-18T16:41:56;-4.50;99.90
13436;DHT22;6790;49.520;8.504;2022-12-18T16:44:22;-4.50;99.90
13436;DHT22;6790;49.520;8.504;2022-12-18T16:46:48;-4.50;99.90
13436;DHT22;6790;49.520;8.504;2022-12-18T16:49:16;-4.50;99.90
13436;DHT22;6790;49.520;8.504;2022-12-18T16:51:43;-4.50;99.90
13436;DHT22;6790;49.520;8.504;2022-12-18T16:54:09;-4.50;99.90
13436;DHT22;6790;49.520;8.504;2022-12-18T16:56:35;-4.50;99.90
13436;DHT22;6790;49.520;8.504;2022-12-18T16:59:02;-4.40;99.90
13436;DHT22;6790;49.520;8.504;2022-12-18T17:01:30;-4.40;99.90
13436;DHT22;6790;49.520;8.504;2022-12-18T17:04:01;-4.40;99.90
13436;DHT22;6790;49.520;8.504;2022-12-18T17:06:31;-4.40;99.90
13436;DHT22;6790;49.520;8.504;2022-12-18T17:08:58;-4.30;99.90
13436;DHT22;6790;49.520;8.504;2022-12-18T17:11:25;-4.40;99.90
13436;DHT22;6790;49.520;8.504;2022-12-18T17:13:52;-4.40;99.90
13436;DHT22;6790;49.520;8.504;2022-12-18T17:16:18;-4.30;99.90
13436;DHT22;6790;49.520;8.504;2022-12-18T17:18:45;-4.30;99.90
13436;DHT22;6790;49.520;8.504;2022-12-18T17:21:11;-4.30;99.90
13436;DHT22;6790;49.520;8.504;2022-12-18T17:23:39;-4.30;99.90
13436;DHT22;6790;49.520;8.504;2022-12-18T17:26:06;-4.30;99.90
13436;DHT22;6790;49.520;8.504;2022-12-18T17:28:33;-4.30;99.90
13436;DHT22;6790;49.520;8.504;2022-12-18T17:30:59;-4.30;99.90
13436;DHT22;6790;49.520;8.504;2022-12-18T17:33:25;-4.30;99.90
13436;DHT22;6790;49.520;8.504;2022-12-18T17:35:51;-4.30;99.90
13436;DHT22;6790;49.520;8.504;2022-12-18T17:38:17;-4.30;99.90
13436;DHT22;6790;49.520;8.504;2022-12-18T17:40:43;-4.30;99.90
13436;DHT22;6790;49.520;8.504;2022-12-18T17:43:10;-4.30;99.90
13436;DHT22;6790;49.520;8.504;2022-12-18T17:45:39;-4.40;99.90
13436;DHT22;6790;49.520;8.504;2022-12-18T17:48:06;-4.40;99.90
13436;DHT22;6790;49.520;8.504;2022-12-18T17:50:33;-4.40;99.90
13436;DHT22;6790;49.520;8.504;2022-12-18T17:52:59;-4.40;99.90